Airfield :
LOGIN :

Register | Disclaimer

   EN    FR    IT 

 










Legend :    VFR   Marginal VFR   IFR   Intensive IFR   Very Intensive IFR
Visi :
Ceiling :
>= 8 km
>= 3000ft
5 to 8 km
1000 to 3000 ft
1500m to 5 km
500 to 1000 ft
800 to 1500m
200 to 500 ft
< 800m
< 200 ft
Symbols :   Thunderstorms  Fog  Heavy snow  Heavy precipitations  Wind > 20 kt
SIGMETs :     Misc.  Thunderstorms  Icing  Turbulence  Mountain Waves  Volcanic Ashes







- Airport Elevation : 489 ft
- IATA code : GDN


EPGD - Gdansk

CURRENT METAR :
  • 241130Z 04008KT 020V090 CAVOK 20/10 Q1027

EXPIRED METARs :
  • 241100Z 07007KT 010V100 CAVOK 20/08 Q1028
  • 241030Z 05006KT 010V080 CAVOK 21/08 Q1028
  • 241000Z 06006KT 010V090 CAVOK 21/08 Q1028
  • 240930Z 04005KT 340V100 CAVOK 20/09 Q1028
  • 240900Z 03006KT 330V080 CAVOK 19/07 Q1028

TAF TAF EPGD
Valid from the 24 at 12:00 until the 25 at 12:00 UTC


241130Z 2412/2512 07008KT CAVOK
No reported NOTAMs for that airfield.



MET'MAP, your aeronautical weather chart ! - Copyright ORBIFLY December 2007 - Disclaimer

ORBIFLY MET'MAP TEAM :

Programming & Development : Alexandra Zaïnal
Concept & Development : Baudouin d'Aumeries
Co-Development & Prog : Marc-Olivier Méhu
Technical & hardware support : Manuel Goepfert

Contact : metmap@orbifly.com




SOURCES & CREDITS :

   NOAA